SILO ALERT LOG
| Silo ID | Alert Type | Alert Message | Silo Type | Points | Depth (mm) | Strength | Temperature (°C) | Humidity (%) | Height (mm) | Volume (㎥) | Weight (t) | Flag | Time |
|---|---|---|---|---|---|---|---|---|---|---|---|---|---|
| WJWJR01 | Humidity | 습도센서 측정값이 80% 초과 | 평 | 66 | 5370 | 1949 | 20.5 | 81.8 | 2269 | 256.731 | 162.305 | 0 | 2026-06-12 01:26:08.000 |
| WJWJR01 | Humidity | 습도센서 측정값이 80% 초과 | 평 | 66 | 5360 | 1902 | 20.9 | 81 | 2279 | 257.862 | 163.02 | 0 | 2026-06-12 00:26:12.000 |
| WJWJR01 | Humidity | 습도센서 측정값이 80% 초과 | 평 | 66 | 5330 | 1888 | 21.3 | 80.4 | 2309 | 261.255 | 165.165 | 0 | 2026-06-11 23:26:09.000 |
| WJWJR01 | Humidity | 습도센서 측정값이 80% 초과 | 평 | 74 | 5320 | 2011 | 20.3 | 82.9 | 2319 | 262.386 | 165.88 | 0 | 2026-06-11 08:26:08.000 |
| WJWJR01 | Humidity | 습도센서 측정값이 80% 초과 | 평 | 74 | 5290 | 2023 | 19.5 | 84 | 2349 | 265.779 | 168.025 | 0 | 2026-06-11 07:26:09.000 |
| WJWJR01 | Humidity | 습도센서 측정값이 80% 초과 | 평 | 74 | 5310 | 2029 | 19.8 | 83.5 | 2330 | 263.517 | 166.595 | 0 | 2026-06-11 05:26:11.000 |
| WJWJR01 | Humidity | 습도센서 측정값이 80% 초과 | 평 | 73 | 5320 | 1984 | 20 | 83.4 | 2319 | 262.386 | 165.88 | 0 | 2026-06-11 04:26:10.000 |
| WJWJR01 | Humidity | 습도센서 측정값이 80% 초과 | 평 | 73 | 5330 | 1983 | 20.2 | 83 | 2309 | 261.255 | 165.165 | 0 | 2026-06-11 03:26:12.000 |
| WJWJR01 | Humidity | 습도센서 측정값이 80% 초과 | 평 | 73 | 5300 | 1962 | 20.5 | 82.5 | 2340 | 264.648 | 167.31 | 0 | 2026-06-11 02:26:12.000 |
| WJWJR01 | Humidity | 습도센서 측정값이 80% 초과 | 평 | 73 | 5300 | 1966 | 21 | 81.8 | 2340 | 264.648 | 167.31 | 0 | 2026-06-11 01:26:10.000 |
| WJWJR01 | Humidity | 습도센서 측정값이 80% 초과 | 평 | 73 | 5270 | 1919 | 21.5 | 80.7 | 2370 | 268.041 | 169.455 | 0 | 2026-06-11 00:26:11.000 |
| WJWJR01 | Humidity | 습도센서 측정값이 80% 초과 | 평 | 76 | 5680 | 1598 | 20.6 | 81.8 | 1960 | 221.671 | 140.14 | 0 | 2026-06-10 08:26:09.000 |
| WJWJR05 | Humidity | 습도센서 측정값이 80% 초과 | 평 | 50 | 5060 | 3777 | 21.6 | 80.3 | 2670 | 301.97 | 190.905 | 0 | 2026-06-10 08:25:36.000 |
| WJWJR01 | Humidity | 습도센서 측정값이 80% 초과 | 평 | 75 | 5660 | 1635 | 19.8 | 83.4 | 1979 | 223.933 | 141.57 | 0 | 2026-06-10 07:26:03.000 |
| WJWJR05 | Humidity | 습도센서 측정값이 80% 초과 | 평 | 65 | 5330 | 3736 | 21.9 | 80.4 | 2400 | 271.434 | 171.6 | 0 | 2026-06-10 07:25:56.000 |
| WJWJR01 | Humidity | 습도센서 측정값이 80% 초과 | 평 | 75 | 5600 | 1623 | 20 | 83.4 | 2040 | 230.719 | 145.86 | 0 | 2026-06-10 06:26:09.000 |
| WJWJR05 | Humidity | 습도센서 측정값이 80% 초과 | 평 | 66 | 5360 | 3727 | 22 | 80.1 | 2370 | 268.041 | 169.455 | 0 | 2026-06-10 06:25:45.000 |
| WJWJR01 | Humidity | 습도센서 측정값이 80% 초과 | 평 | 75 | 5620 | 1586 | 20.2 | 82.8 | 2019 | 228.457 | 144.43 | 0 | 2026-06-10 05:26:11.000 |
| WJWJR01 | Humidity | 습도센서 측정값이 80% 초과 | 평 | 75 | 5630 | 1611 | 20.5 | 82.5 | 2009 | 227.326 | 143.715 | 0 | 2026-06-10 04:26:04.000 |
| WJWJR01 | Humidity | 습도센서 측정값이 80% 초과 | 평 | 75 | 5950 | 1608 | 20.8 | 82.2 | 1689 | 191.134 | 120.835 | 0 | 2026-06-10 03:26:04.000 |
[첫 페이지] [46] [47] [48] [49] 50 [51] [52] [53] [54] [마지막 페이지]